Drake, Missouri
Current Conditions -  °F | °C
As of 11:53 PM on Saturday 22 Nov 2014 (Local Time) from KVIH Reporting Station
Overcast Overcast  
Wind Chill: 53°   Ceiling: 10000
Heat Index: 53°   Visibility: 10mi
Dew Point: 47°   Wind: 15mph
Humidity: 80%   Direction: 170°S
Pressure: 29.81"   Gusts: 24mph
Location:  38.3708°N, 91.4729°W
Report Text: KVIH 230553Z AUTO 17013G21KT 10SM OVC100 12/08 A2981 RMK AO2 SLP090 60000 T01170083 10117 20106 401330061 56020
Loading
Personal Weather Stations






























Interactive Weather Map New forecast layout! Learn more

10-Day Weather Forecast

Advertisements
Track Severe Weather on mobile